Airfield :
LOGIN :

Register | Disclaimer

   EN    FR    IT 

 










Legend :    VFR   Marginal VFR   IFR   Intensive IFR   Very Intensive IFR
Visi :
Ceiling :
>= 8 km
>= 3000ft
5 to 8 km
1000 to 3000 ft
1500m to 5 km
500 to 1000 ft
800 to 1500m
200 to 500 ft
< 800m
< 200 ft
Symbols :   Thunderstorms  Fog  Heavy snow  Heavy precipitations  Wind > 20 kt
SIGMETs :     Misc.  Thunderstorms  Icing  Turbulence  Mountain Waves  Volcanic Ashes







- Airport Elevation : 72 ft
- IATA code : UDE


EHVK - Volkel Airbase

CURRENT METAR :
  • 262025Z AUTO 22004KT 9999 FEW048 SCT054 OVC260 08/04 Q1017 BLU

EXPIRED METARs :
  • 261955Z AUTO 24005KT 9999 SCT047 SCT059 BKN066 09/05 Q1017 REDZ BLU
  • 261925Z AUTO 26007KT 230V300 9999 SCT048 BKN054 BKN060 11/03 Q1016 REDZ BLU
  • 261855Z AUTO 28003KT 250V320 9999 FEW031CB BKN082 OVC088 11/03 Q1016 BLU
  • 261825Z AUTO 28005KT 250V330 9999 NCD 12/03 Q1016 BLU
  • 261755Z AUTO 27007KT 230V330 9999 FEW055 12/02 Q1016 BLU

TAF TAF EHVK
Valid from the 26 at 09:00 until the 26 at 21:00 UTC


260821Z 2609/2621 25015G25KT 9999 SCT020 SCT040
PROB30
TEMPO 2609/2617 FEW015CB BKN018
BECMG 2618/2621 20005KT
No reported NOTAMs for that airfield.
1 SIGMET reported for the Amsterdam FIR (EHAA) :
 
Severe turbulence
EHAA SIGMET 1 VALID 261930/262200 EHDB
EHAA AMSTERDAM FIR SEV TURB OBS NE OF LINE N5423 E00247 - N5216 E00701 FL250/320 MOV NE 35KT NC=



MET'MAP, your aeronautical weather chart ! - Copyright ORBIFLY December 2007 - Disclaimer

ORBIFLY MET'MAP TEAM :

Programming & Development : Alexandra Zaïnal
Concept & Development : Baudouin d'Aumeries
Co-Development & Prog : Marc-Olivier Méhu
Technical & hardware support : Manuel Goepfert

Contact : metmap@orbifly.com




SOURCES & CREDITS :

   NOAA